createdAt,value
2022-09-17T00:00:12.920Z,36.22
2022-09-17T00:00:43.079Z,36.22
2022-09-17T00:01:13.063Z,36.24
2022-09-17T00:01:43.292Z,36.20
2022-09-17T00:02:13.285Z,36.21
2022-09-17T00:02:43.317Z,36.27
2022-09-17T00:03:13.343Z,36.24
2022-09-17T00:03:43.319Z,36.24
2022-09-17T00:04:13.395Z,36.20
2022-09-17T00:04:43.516Z,36.22
2022-09-17T00:05:13.584Z,36.27
2022-09-17T00:05:43.660Z,36.27
2022-09-17T00:06:13.735Z,36.21
2022-09-17T00:06:43.814Z,36.26
2022-09-17T00:07:13.890Z,36.20
2022-09-17T00:07:43.961Z,36.26
2022-09-17T00:08:14.041Z,36.24
2022-09-17T00:08:44.127Z,36.25
2022-09-17T00:09:14.205Z,36.28
2022-09-17T00:09:44.278Z,36.18
2022-09-17T00:10:14.349Z,36.18
2022-09-17T00:10:44.445Z,36.21
2022-09-17T00:11:14.499Z,36.22
2022-09-17T00:11:44.573Z,36.22
2022-09-17T00:12:14.666Z,36.24
2022-09-17T00:12:44.725Z,36.22
2022-09-17T00:13:14.823Z,36.23
2022-09-17T00:13:45.065Z,36.21
2022-09-17T00:14:15.010Z,36.25
2022-09-17T00:14:45.143Z,36.20
2022-09-17T00:15:15.140Z,36.21
2022-09-17T00:15:45.179Z,36.22
2022-09-17T00:16:15.228Z,36.16
2022-09-17T00:16:45.230Z,36.22
2022-09-17T00:17:15.341Z,36.24
2022-09-17T00:17:45.455Z,36.21
2022-09-17T00:18:15.664Z,36.24
2022-09-17T00:18:45.647Z,36.18
2022-09-17T00:19:15.763Z,36.20
2022-09-17T00:19:45.891Z,36.20
2022-09-17T00:20:15.884Z,36.19
2022-09-17T00:20:45.984Z,36.21
2022-09-17T00:21:16.101Z,36.24
2022-09-17T00:21:46.222Z,36.21
2022-09-17T00:22:16.233Z,36.21
2022-09-17T00:22:46.239Z,36.27
2022-09-17T00:23:16.224Z,36.22
2022-09-17T00:23:46.265Z,36.22
2022-09-17T00:24:16.229Z,36.24
2022-09-17T00:24:46.367Z,36.25
2022-09-17T00:25:16.339Z,36.21
2022-09-17T00:25:46.449Z,36.22
2022-09-17T00:26:16.581Z,36.22
2022-09-17T00:26:46.587Z,36.22
2022-09-17T00:27:16.569Z,36.18
2022-09-17T00:27:46.695Z,36.25
2022-09-17T00:28:16.815Z,36.21
2022-09-17T00:28:46.928Z,36.22
2022-09-17T00:29:17.631Z,36.22
2022-09-17T00:29:46.952Z,36.15
2022-09-17T00:30:17.066Z,36.20
2022-09-17T00:30:47.196Z,36.21
2022-09-17T00:31:17.229Z,36.20
2022-09-17T00:31:47.316Z,36.18
2022-09-17T00:32:17.294Z,36.16
2022-09-17T00:32:47.406Z,36.14
2022-09-17T00:33:17.516Z,36.18
2022-09-17T00:33:47.645Z,36.18
2022-09-17T00:34:17.741Z,36.20
2022-09-17T00:34:47.853Z,36.18
2022-09-17T00:35:17.984Z,36.18
2022-09-17T00:35:47.973Z,36.15
2022-09-17T00:36:17.960Z,36.20
2022-09-17T00:36:48.100Z,36.20
2022-09-17T00:37:18.071Z,36.17
2022-09-17T00:37:48.183Z,36.15
2022-09-17T00:38:18.299Z,36.15
2022-09-17T00:38:48.319Z,36.17
2022-09-17T00:39:18.344Z,36.12
2022-09-17T00:39:48.536Z,36.14
2022-09-17T00:40:18.490Z,36.18
2022-09-17T00:40:48.467Z,36.17
2022-09-17T00:41:18.457Z,36.14
2022-09-17T00:41:48.587Z,36.16
2022-09-17T00:42:18.566Z,36.15
2022-09-17T00:42:48.676Z,36.13
2022-09-17T00:43:18.809Z,36.14
2022-09-17T00:43:48.798Z,36.17
2022-09-17T00:44:18.910Z,36.15
2022-09-17T00:44:49.177Z,36.14
2022-09-17T00:45:19.123Z,36.13
2022-09-17T00:45:49.237Z,36.18
2022-09-17T00:46:19.396Z,36.11
2022-09-17T00:46:49.509Z,36.17
2022-09-17T00:47:19.400Z,36.18
2022-09-17T00:47:49.538Z,36.17
2022-09-17T00:48:19.638Z,36.13
2022-09-17T00:48:49.757Z,36.16
2022-09-17T00:49:19.870Z,36.14
2022-09-17T00:49:49.995Z,36.11
2022-09-17T00:50:19.986Z,36.07
2022-09-17T00:50:50.109Z,36.11
2022-09-17T00:51:20.093Z,36.12
2022-09-17T00:51:50.212Z,36.11
2022-09-17T00:52:20.330Z,36.07
2022-09-17T00:52:50.428Z,36.11
2022-09-17T00:53:20.544Z,36.14
2022-09-17T00:53:50.656Z,36.09
2022-09-17T00:54:20.762Z,36.12
2022-09-17T00:54:50.881Z,36.14
2022-09-17T00:55:20.986Z,36.12
2022-09-17T00:55:51.099Z,36.14
2022-09-17T00:56:21.243Z,36.13
2022-09-17T00:56:51.217Z,36.09
2022-09-17T00:57:21.205Z,36.11
2022-09-17T00:57:51.326Z,36.14
2022-09-17T00:58:21.425Z,36.08
2022-09-17T00:58:51.539Z,36.12
2022-09-17T00:59:21.654Z,36.14
2022-09-17T00:59:51.885Z,36.15
2022-09-17T01:00:21.834Z,36.15
2022-09-17T01:00:51.993Z,36.15
2022-09-17T01:01:22.145Z,36.10
2022-09-17T01:01:52.069Z,36.12
2022-09-17T01:02:22.132Z,36.15
2022-09-17T01:02:52.113Z,36.09
2022-09-17T01:03:22.188Z,36.13
2022-09-17T01:03:52.266Z,36.14
2022-09-17T01:04:22.342Z,36.10
2022-09-17T01:04:52.416Z,36.15
2022-09-17T01:05:22.502Z,36.17
2022-09-17T01:05:52.580Z,36.12
2022-09-17T01:06:22.656Z,36.10
2022-09-17T01:06:52.724Z,36.15
2022-09-17T01:07:22.791Z,36.15
2022-09-17T01:07:52.863Z,36.14
2022-09-17T01:08:22.944Z,36.14
2022-09-17T01:08:53.015Z,36.13
2022-09-17T01:09:23.081Z,36.18
2022-09-17T01:09:53.164Z,36.15
2022-09-17T01:10:23.236Z,36.14
2022-09-17T01:10:53.334Z,36.13
2022-09-17T01:11:23.414Z,36.13
2022-09-17T01:11:53.490Z,36.15
2022-09-17T01:12:23.564Z,36.13
2022-09-17T01:12:53.659Z,36.18
2022-09-17T01:13:23.628Z,36.07
2022-09-17T01:13:53.754Z,36.13
2022-09-17T01:14:23.882Z,36.15
2022-09-17T01:14:53.984Z,36.15
2022-09-17T01:15:23.925Z,36.17
2022-09-17T01:15:54.093Z,36.15
2022-09-17T01:16:24.216Z,36.11
2022-09-17T01:16:54.206Z,36.13
2022-09-17T01:17:24.355Z,36.13
2022-09-17T01:17:54.321Z,36.07
2022-09-17T01:18:24.437Z,36.15
2022-09-17T01:18:54.545Z,36.15
2022-09-17T01:19:24.651Z,36.15
2022-09-17T01:19:54.767Z,36.16
2022-09-17T01:20:24.880Z,36.19
2022-09-17T01:20:54.879Z,36.13
2022-09-17T01:21:24.982Z,36.11
2022-09-17T01:21:55.123Z,36.10
2022-09-17T01:22:25.204Z,36.15
2022-09-17T01:22:55.316Z,36.12
2022-09-17T01:23:25.429Z,36.15
2022-09-17T01:23:55.602Z,36.15
2022-09-17T01:24:25.587Z,36.15
2022-09-17T01:24:55.693Z,36.12
2022-09-17T01:25:25.817Z,36.13
2022-09-17T01:25:55.939Z,36.09
2022-09-17T01:26:25.925Z,36.15
2022-09-17T01:26:56.034Z,36.16
2022-09-17T01:27:26.144Z,36.15
2022-09-17T01:27:56.256Z,36.12
2022-09-17T01:28:26.368Z,36.13
2022-09-17T01:28:56.486Z,36.15
2022-09-17T01:29:26.598Z,36.16
2022-09-17T01:29:56.832Z,36.17
2022-09-17T01:30:26.800Z,36.12
2022-09-17T01:30:56.967Z,36.13
2022-09-17T01:31:26.903Z,36.11
2022-09-17T01:31:56.900Z,36.10
2022-09-17T01:32:26.884Z,36.16
2022-09-17T01:32:56.989Z,36.13
2022-09-17T01:33:27.103Z,36.13
2022-09-17T01:33:57.205Z,36.12
2022-09-17T01:34:27.310Z,36.11
2022-09-17T01:34:57.444Z,36.16
2022-09-17T01:35:27.424Z,36.15
2022-09-17T01:35:57.539Z,36.19
2022-09-17T01:36:27.647Z,36.08
2022-09-17T01:36:57.753Z,36.10
2022-09-17T01:37:30.745Z,36.16
2022-09-17T01:37:57.976Z,36.12
2022-09-17T01:38:28.084Z,36.12
2022-09-17T01:38:58.196Z,36.10
2022-09-17T01:39:28.315Z,36.10
2022-09-17T01:39:58.513Z,36.11
2022-09-17T01:40:28.569Z,36.13
2022-09-17T01:40:58.549Z,36.13
2022-09-17T01:41:28.554Z,36.09
2022-09-17T01:41:58.660Z,36.11
2022-09-17T01:42:28.647Z,36.10
2022-09-17T01:42:58.765Z,36.10
2022-09-17T01:43:28.879Z,36.16
2022-09-17T01:43:58.997Z,36.13
2022-09-17T01:44:29.104Z,36.09
2022-09-17T01:44:59.344Z,36.10
2022-09-17T01:45:29.294Z,36.16
2022-09-17T01:45:59.400Z,36.10
2022-09-17T01:46:29.635Z,36.11
2022-09-17T01:46:59.618Z,36.09
2022-09-17T01:47:29.728Z,36.11
2022-09-17T01:47:59.835Z,36.08
2022-09-17T01:48:29.946Z,36.15
2022-09-17T01:49:00.099Z,36.08
2022-09-17T01:49:30.173Z,36.13
2022-09-17T01:50:00.282Z,36.11
2022-09-17T01:50:30.401Z,36.11
2022-09-17T01:51:00.500Z,36.09
2022-09-17T01:51:30.622Z,36.10
2022-09-17T01:52:00.740Z,36.09
2022-09-17T01:52:30.733Z,36.10
2022-09-17T01:53:00.854Z,36.05
2022-09-17T01:53:30.960Z,36.05
2022-09-17T01:54:01.092Z,36.11
2022-09-17T01:54:31.079Z,36.11
2022-09-17T01:55:01.198Z,36.07
2022-09-17T01:55:31.179Z,36.15
2022-09-17T01:56:01.292Z,36.13
2022-09-17T01:56:31.431Z,36.11
2022-09-17T01:57:01.414Z,36.13
2022-09-17T01:57:31.521Z,36.10
2022-09-17T01:58:01.655Z,36.07
2022-09-17T01:58:31.633Z,36.13
2022-09-17T01:59:01.740Z,36.13
2022-09-17T01:59:31.864Z,36.11
2022-09-17T02:00:02.088Z,36.05
2022-09-17T02:00:32.065Z,36.07
2022-09-17T02:01:02.088Z,36.05
2022-09-17T02:01:32.067Z,36.09
2022-09-17T02:02:02.252Z,36.08
2022-09-17T02:02:32.269Z,36.13
2022-09-17T02:03:02.355Z,36.04
2022-09-17T02:03:32.465Z,36.10
2022-09-17T02:04:02.603Z,36.08
2022-09-17T02:04:32.576Z,36.09
2022-09-17T02:05:02.692Z,36.07
2022-09-17T02:05:32.794Z,36.08
2022-09-17T02:06:02.917Z,36.09
2022-09-17T02:06:32.897Z,36.09
2022-09-17T02:07:03.018Z,36.07
2022-09-17T02:07:33.128Z,36.10
2022-09-17T02:08:03.250Z,36.11
2022-09-17T02:08:33.249Z,36.07
2022-09-17T02:09:03.357Z,36.13
2022-09-17T02:09:33.469Z,36.08
2022-09-17T02:10:03.577Z,36.10
2022-09-17T02:10:33.686Z,36.07
2022-09-17T02:11:03.803Z,36.10
2022-09-17T02:11:33.793Z,36.11
2022-09-17T02:12:03.904Z,36.08
2022-09-17T02:12:34.031Z,36.08
2022-09-17T02:13:04.023Z,36.10
2022-09-17T02:13:34.053Z,36.08
2022-09-17T02:14:04.078Z,36.09
2022-09-17T02:14:34.116Z,36.07
2022-09-17T02:15:04.138Z,36.11
2022-09-17T02:15:34.295Z,36.15
2022-09-17T02:16:04.322Z,36.15
2022-09-17T02:16:34.414Z,36.10
2022-09-17T02:17:04.434Z,36.10
2022-09-17T02:17:34.450Z,36.10
2022-09-17T02:18:04.485Z,36.05
2022-09-17T02:18:34.504Z,36.08
2022-09-17T02:19:04.547Z,36.01
2022-09-17T02:19:34.576Z,36.05
2022-09-17T02:20:04.596Z,36.07
2022-09-17T02:20:34.625Z,36.05
2022-09-17T02:21:04.652Z,36.06
2022-09-17T02:21:34.682Z,36.07
2022-09-17T02:22:04.711Z,36.09
2022-09-17T02:22:34.728Z,36.04
2022-09-17T02:23:04.824Z,36.03
2022-09-17T02:23:34.850Z,36.01
2022-09-17T02:24:04.880Z,36.04
2022-09-17T02:24:34.898Z,36.09
2022-09-17T02:25:04.931Z,36.09
2022-09-17T02:25:34.941Z,36.03
2022-09-17T02:26:04.968Z,36.04
2022-09-17T02:26:35.000Z,36.04
2022-09-17T02:27:05.027Z,36.06
2022-09-17T02:27:35.055Z,36.01
2022-09-17T02:28:05.088Z,36.01
2022-09-17T02:28:35.108Z,36.04
2022-09-17T02:29:05.134Z,36.03
2022-09-17T02:29:35.162Z,36.06
2022-09-17T02:30:05.184Z,36.07
2022-09-17T02:30:35.223Z,36.01
2022-09-17T02:31:05.391Z,36.03
2022-09-17T02:31:35.393Z,36.04
2022-09-17T02:32:05.403Z,36.07
2022-09-17T02:32:35.422Z,36.01
2022-09-17T02:33:05.451Z,36.06
2022-09-17T02:33:35.468Z,36.03
2022-09-17T02:34:05.497Z,36.01
2022-09-17T02:34:35.540Z,36.03
2022-09-17T02:35:05.566Z,36.01
2022-09-17T02:35:35.580Z,36.00
2022-09-17T02:36:05.605Z,36.00
2022-09-17T02:36:35.630Z,36.03
2022-09-17T02:37:05.966Z,36.01
2022-09-17T02:37:35.738Z,36.00
2022-09-17T02:38:05.769Z,36.04
2022-09-17T02:38:35.800Z,36.03
2022-09-17T02:39:05.828Z,36.01
2022-09-17T02:39:35.853Z,36.00
2022-09-17T02:40:05.912Z,36.00
2022-09-17T02:40:36.011Z,36.03
2022-09-17T02:41:06.064Z,36.04
2022-09-17T02:41:36.085Z,36.03
2022-09-17T02:42:06.114Z,35.96
2022-09-17T02:42:36.160Z,35.96
2022-09-17T02:43:06.187Z,36.04
2022-09-17T02:43:36.216Z,36.04
2022-09-17T02:44:06.245Z,36.02
2022-09-17T02:44:36.274Z,36.02
2022-09-17T02:45:06.305Z,36.04
2022-09-17T02:45:36.331Z,36.00
2022-09-17T02:46:06.436Z,36.09
2022-09-17T02:46:36.542Z,36.02
2022-09-17T02:47:06.479Z,36.07
2022-09-17T02:47:36.491Z,36.04
2022-09-17T02:48:06.514Z,36.04
2022-09-17T02:48:36.541Z,36.04
2022-09-17T02:49:06.575Z,36.05
2022-09-17T02:49:36.594Z,36.05
2022-09-17T02:50:06.618Z,36.02
2022-09-17T02:50:36.641Z,36.05
2022-09-17T02:51:06.666Z,36.04
2022-09-17T02:51:36.687Z,36.02
2022-09-17T02:52:06.739Z,36.05
2022-09-17T02:52:36.744Z,36.04
2022-09-17T02:53:06.767Z,36.06
2022-09-17T02:53:36.799Z,36.09
2022-09-17T02:54:06.821Z,36.05
2022-09-17T02:54:36.846Z,36.04
2022-09-17T02:55:06.866Z,36.09
2022-09-17T02:55:36.906Z,36.05
2022-09-17T02:56:06.935Z,36.11
2022-09-17T02:56:36.951Z,36.02
2022-09-17T02:57:06.985Z,36.02
2022-09-17T02:57:37.020Z,35.98
2022-09-17T02:58:07.051Z,36.05
2022-09-17T02:58:37.075Z,36.03
2022-09-17T02:59:07.112Z,36.02
2022-09-17T02:59:37.131Z,36.08
2022-09-17T03:00:07.151Z,36.02
2022-09-17T03:00:37.210Z,36.06
2022-09-17T03:01:07.245Z,36.05
2022-09-17T03:01:37.324Z,36.03
2022-09-17T03:02:07.516Z,36.03
2022-09-17T03:02:37.392Z,36.07
2022-09-17T03:03:07.395Z,36.06
2022-09-17T03:03:37.521Z,36.05
2022-09-17T03:04:07.635Z,36.05
2022-09-17T03:04:37.627Z,36.02
2022-09-17T03:05:07.754Z,36.06
2022-09-17T03:05:37.855Z,36.05
2022-09-17T03:06:07.867Z,36.02
2022-09-17T03:06:37.855Z,36.00
2022-09-17T03:07:07.845Z,36.04
2022-09-17T03:07:37.837Z,36.01
2022-09-17T03:08:07.939Z,36.00
2022-09-17T03:08:38.053Z,36.04
2022-09-17T03:09:08.163Z,36.09
2022-09-17T03:09:38.275Z,36.02
2022-09-17T03:10:08.293Z,36.06
2022-09-17T03:10:38.277Z,36.02
2022-09-17T03:11:08.394Z,36.03
2022-09-17T03:11:38.513Z,36.03
2022-09-17T03:12:08.620Z,36.02
2022-09-17T03:12:38.738Z,36.06
2022-09-17T03:13:08.741Z,36.00
2022-09-17T03:13:38.774Z,35.99
2022-09-17T03:14:08.804Z,36.03
2022-09-17T03:14:38.826Z,36.07
2022-09-17T03:15:08.852Z,36.00
2022-09-17T03:15:38.880Z,36.05
2022-09-17T03:16:08.975Z,36.05
2022-09-17T03:16:39.067Z,36.02
2022-09-17T03:17:09.206Z,36.00
2022-09-17T03:17:39.195Z,36.02
2022-09-17T03:18:09.214Z,36.00
2022-09-17T03:18:39.243Z,36.03
2022-09-17T03:19:09.271Z,36.00
2022-09-17T03:19:39.290Z,36.00
2022-09-17T03:20:09.318Z,36.03
2022-09-17T03:20:39.358Z,36.02
2022-09-17T03:21:09.386Z,36.05
2022-09-17T03:21:39.408Z,36.02
2022-09-17T03:22:09.448Z,36.00
2022-09-17T03:22:39.471Z,35.96
2022-09-17T03:23:09.507Z,36.05
2022-09-17T03:23:39.530Z,36.06
2022-09-17T03:24:09.559Z,36.00
2022-09-17T03:24:39.587Z,35.94
2022-09-17T03:25:09.608Z,36.05
2022-09-17T03:25:39.638Z,35.94
2022-09-17T03:26:09.665Z,35.96
2022-09-17T03:26:39.687Z,35.99
2022-09-17T03:27:09.717Z,36.02
2022-09-17T03:27:39.747Z,36.05
2022-09-17T03:28:09.782Z,36.00
2022-09-17T03:28:39.793Z,36.02
2022-09-17T03:29:09.819Z,35.99
2022-09-17T03:29:39.843Z,35.99
2022-09-17T03:30:09.871Z,36.02
2022-09-17T03:30:39.904Z,35.98
2022-09-17T03:31:10.009Z,36.00
2022-09-17T03:31:39.998Z,36.00
2022-09-17T03:32:10.066Z,36.05
2022-09-17T03:32:40.217Z,35.98
2022-09-17T03:33:10.229Z,35.99
2022-09-17T03:33:40.265Z,36.03
2022-09-17T03:34:10.281Z,35.99
2022-09-17T03:34:40.308Z,35.96
2022-09-17T03:35:10.333Z,35.96
2022-09-17T03:35:40.355Z,35.98
2022-09-17T03:36:10.384Z,35.99
2022-09-17T03:36:40.419Z,35.99
2022-09-17T03:37:10.448Z,35.97
2022-09-17T03:37:40.489Z,36.01
2022-09-17T03:38:10.503Z,36.02
2022-09-17T03:38:40.535Z,36.00
2022-09-17T03:39:10.555Z,36.00
2022-09-17T03:39:40.574Z,35.99
2022-09-17T03:40:10.708Z,35.99
2022-09-17T03:40:40.630Z,35.98
2022-09-17T03:41:10.650Z,36.00
2022-09-17T03:41:40.673Z,35.99
2022-09-17T03:42:10.733Z,35.96
2022-09-17T03:42:40.759Z,35.99
2022-09-17T03:43:10.781Z,36.03
2022-09-17T03:43:40.829Z,35.97
2022-09-17T03:44:10.868Z,36.01
2022-09-17T03:44:45.189Z,36.03
2022-09-17T03:45:11.029Z,36.00
2022-09-17T03:45:41.053Z,35.97
2022-09-17T03:46:11.151Z,35.96
2022-09-17T03:46:41.207Z,36.00
2022-09-17T03:47:11.223Z,35.99
2022-09-17T03:47:41.243Z,35.98
2022-09-17T03:48:11.382Z,35.99
2022-09-17T03:48:41.386Z,35.99
2022-09-17T03:49:11.418Z,36.00
2022-09-17T03:49:41.435Z,35.99
2022-09-17T03:50:11.470Z,35.97
2022-09-17T03:50:41.489Z,35.99
2022-09-17T03:51:11.514Z,36.00
2022-09-17T03:51:41.544Z,36.00
2022-09-17T03:52:11.587Z,35.97
2022-09-17T03:52:41.618Z,35.94
2022-09-17T03:53:11.634Z,35.94
2022-09-17T03:53:41.657Z,35.96
2022-09-17T03:54:11.679Z,35.91
2022-09-17T03:54:41.713Z,35.97
2022-09-17T03:55:11.760Z,35.95
2022-09-17T03:55:41.768Z,35.94
2022-09-17T03:56:11.788Z,35.99
2022-09-17T03:56:41.822Z,35.90
2022-09-17T03:57:11.869Z,35.97
2022-09-17T03:57:41.881Z,35.96
2022-09-17T03:58:11.904Z,35.97
2022-09-17T03:58:41.928Z,35.99
2022-09-17T03:59:11.977Z,35.97
2022-09-17T03:59:41.981Z,35.91
2022-09-17T04:00:12.003Z,35.95
2022-09-17T04:00:42.023Z,35.95
2022-09-17T04:01:12.093Z,35.99
2022-09-17T04:01:42.298Z,35.97
2022-09-17T04:02:12.304Z,35.93
2022-09-17T04:02:42.330Z,35.94
2022-09-17T04:03:12.331Z,35.97
2022-09-17T04:03:42.571Z,35.94
2022-09-17T04:04:12.517Z,35.97
2022-09-17T04:04:42.630Z,35.96
2022-09-17T04:05:12.738Z,35.95
2022-09-17T04:05:42.860Z,35.91
2022-09-17T04:06:12.878Z,35.94
2022-09-17T04:06:42.855Z,35.93
2022-09-17T04:07:12.969Z,35.94
2022-09-17T04:07:43.088Z,35.95
2022-09-17T04:08:13.192Z,35.95
2022-09-17T04:08:43.304Z,35.94
2022-09-17T04:09:13.423Z,35.93
2022-09-17T04:09:43.542Z,35.99
2022-09-17T04:10:13.642Z,35.95
2022-09-17T04:10:43.756Z,35.93
2022-09-17T04:11:13.878Z,35.94
2022-09-17T04:11:43.992Z,35.91
2022-09-17T04:12:14.102Z,35.94
2022-09-17T04:12:44.211Z,35.97
2022-09-17T04:13:14.239Z,35.93
2022-09-17T04:13:44.270Z,35.93
2022-09-17T04:14:14.289Z,35.94
2022-09-17T04:14:44.326Z,35.94
2022-09-17T04:15:14.352Z,35.96
2022-09-17T04:15:44.451Z,35.95
2022-09-17T04:16:14.570Z,35.91
2022-09-17T04:16:44.471Z,35.94
2022-09-17T04:17:14.502Z,35.94
2022-09-17T04:17:44.564Z,35.93
2022-09-17T04:18:14.579Z,35.97
2022-09-17T04:18:44.607Z,35.88
2022-09-17T04:19:14.761Z,35.93
2022-09-17T04:19:44.748Z,35.94
2022-09-17T04:20:14.786Z,35.93
2022-09-17T04:20:44.823Z,35.94
2022-09-17T04:21:14.838Z,35.95
2022-09-17T04:21:44.868Z,35.94
2022-09-17T04:22:14.899Z,35.90
2022-09-17T04:22:44.926Z,35.95
2022-09-17T04:23:14.951Z,35.91
2022-09-17T04:23:44.974Z,35.87
2022-09-17T04:24:15.003Z,35.95
2022-09-17T04:24:45.025Z,35.91
2022-09-17T04:25:15.044Z,35.94
2022-09-17T04:25:45.090Z,35.93
2022-09-17T04:26:15.126Z,35.89
2022-09-17T04:26:45.152Z,35.93
2022-09-17T04:27:15.196Z,35.94
2022-09-17T04:27:45.215Z,35.93
2022-09-17T04:28:15.239Z,35.95
2022-09-17T04:28:45.266Z,35.85
2022-09-17T04:29:15.301Z,35.91
2022-09-17T04:29:45.351Z,35.93
2022-09-17T04:30:15.354Z,35.93
2022-09-17T04:30:45.407Z,35.91
2022-09-17T04:31:15.495Z,35.89
2022-09-17T04:31:45.676Z,35.91
2022-09-17T04:32:15.573Z,35.93
2022-09-17T04:32:45.602Z,35.93
2022-09-17T04:33:15.637Z,35.91
2022-09-17T04:33:45.654Z,35.93
2022-09-17T04:34:15.685Z,35.89
2022-09-17T04:34:45.844Z,35.88
2022-09-17T04:35:15.833Z,35.88
2022-09-17T04:35:45.860Z,35.91
2022-09-17T04:36:15.886Z,35.88
2022-09-17T04:36:45.925Z,35.92
2022-09-17T04:37:15.948Z,35.95
2022-09-17T04:37:45.970Z,35.95
2022-09-17T04:38:15.993Z,35.94
2022-09-17T04:38:46.026Z,35.93
2022-09-17T04:39:16.056Z,35.93
2022-09-17T04:39:46.087Z,35.87
2022-09-17T04:40:16.151Z,35.93
2022-09-17T04:40:46.166Z,35.95
2022-09-17T04:41:16.187Z,35.94
2022-09-17T04:41:46.243Z,35.85
2022-09-17T04:42:16.277Z,35.94
2022-09-17T04:42:46.304Z,35.91
2022-09-17T04:43:16.360Z,35.91
2022-09-17T04:43:46.427Z,35.90
2022-09-17T04:44:16.417Z,35.91
2022-09-17T04:44:46.456Z,35.97
2022-09-17T04:45:16.485Z,35.91
2022-09-17T04:45:46.504Z,35.93
2022-09-17T04:46:16.572Z,35.90
2022-09-17T04:46:46.663Z,35.88
2022-09-17T04:47:16.715Z,35.88
2022-09-17T04:47:46.744Z,35.88
2022-09-17T04:48:16.768Z,35.90
2022-09-17T04:48:46.828Z,35.91
2022-09-17T04:49:16.838Z,35.90
2022-09-17T04:49:46.863Z,35.91
2022-09-17T04:50:17.009Z,35.87
2022-09-17T04:50:46.997Z,35.88
2022-09-17T04:51:17.029Z,35.87
2022-09-17T04:51:47.063Z,35.92
2022-09-17T04:52:17.088Z,35.91
2022-09-17T04:52:47.107Z,35.82
2022-09-17T04:53:17.130Z,35.84
2022-09-17T04:53:47.164Z,35.88
2022-09-17T04:54:17.199Z,35.86
2022-09-17T04:54:47.234Z,35.86
2022-09-17T04:55:17.287Z,35.85
2022-09-17T04:55:47.297Z,35.88
2022-09-17T04:56:17.347Z,35.86
2022-09-17T04:56:47.359Z,35.91
2022-09-17T04:57:17.385Z,35.85
2022-09-17T04:57:47.430Z,35.84
2022-09-17T04:58:17.446Z,35.86
2022-09-17T04:58:47.539Z,35.86
2022-09-17T04:59:17.525Z,35.83
2022-09-17T04:59:47.563Z,35.86
2022-09-17T05:00:17.605Z,35.86
2022-09-17T05:00:47.697Z,35.84
2022-09-17T05:01:17.891Z,35.87
2022-09-17T05:01:47.824Z,35.81
2022-09-17T05:02:17.902Z,35.82
2022-09-17T05:02:47.908Z,35.82
2022-09-17T05:03:18.046Z,35.85
2022-09-17T05:03:48.052Z,35.84
2022-09-17T05:04:18.041Z,35.82
2022-09-17T05:04:48.046Z,35.88
2022-09-17T05:05:18.154Z,35.82
2022-09-17T05:05:48.380Z,35.87
2022-09-17T05:06:18.357Z,35.82
2022-09-17T05:06:48.360Z,35.79
2022-09-17T05:07:18.449Z,35.84
2022-09-17T05:07:48.559Z,35.85
2022-09-17T05:08:18.667Z,35.81
2022-09-17T05:08:48.662Z,35.85
2022-09-17T05:09:18.773Z,35.84
2022-09-17T05:09:48.774Z,35.88
2022-09-17T05:10:18.892Z,35.85
2022-09-17T05:10:48.908Z,35.82
2022-09-17T05:11:18.897Z,35.87
2022-09-17T05:11:48.884Z,35.82
2022-09-17T05:12:19.001Z,35.88
2022-09-17T05:12:49.111Z,35.89
2022-09-17T05:13:19.148Z,35.88
2022-09-17T05:13:49.228Z,35.84
2022-09-17T05:14:19.295Z,35.86
2022-09-17T05:14:49.341Z,35.87
2022-09-17T05:15:19.354Z,35.85
2022-09-17T05:15:49.401Z,35.84
2022-09-17T05:16:19.501Z,35.91
2022-09-17T05:16:49.417Z,35.87
2022-09-17T05:17:19.454Z,35.86
2022-09-17T05:17:49.480Z,35.85
2022-09-17T05:18:19.533Z,35.85
2022-09-17T05:18:49.542Z,35.91
2022-09-17T05:19:19.580Z,35.86
2022-09-17T05:19:49.580Z,35.91
2022-09-17T05:20:19.629Z,35.85
2022-09-17T05:20:49.672Z,35.93
2022-09-17T05:21:19.835Z,35.87
2022-09-17T05:21:49.707Z,35.93
2022-09-17T05:22:21.608Z,35.83
2022-09-17T05:22:49.739Z,35.90
2022-09-17T05:23:19.773Z,35.92
2022-09-17T05:23:49.807Z,35.83
2022-09-17T05:24:19.838Z,35.92
2022-09-17T05:24:49.861Z,35.89
2022-09-17T05:25:19.890Z,35.86
2022-09-17T05:25:49.923Z,35.88
2022-09-17T05:26:19.951Z,35.82
2022-09-17T05:26:49.980Z,35.85
2022-09-17T05:27:20.004Z,35.88
2022-09-17T05:27:50.033Z,35.91
2022-09-17T05:28:20.054Z,35.89
2022-09-17T05:28:50.078Z,35.83
2022-09-17T05:29:20.120Z,35.86
2022-09-17T05:29:50.145Z,35.87
2022-09-17T05:30:20.158Z,35.87
2022-09-17T05:30:50.190Z,35.86
2022-09-17T05:31:20.306Z,35.89
2022-09-17T05:31:50.206Z,35.87
2022-09-17T05:32:20.251Z,35.85
2022-09-17T05:32:50.278Z,35.82
2022-09-17T05:33:20.305Z,35.87
2022-09-17T05:33:50.325Z,35.86
2022-09-17T05:34:20.359Z,35.82
2022-09-17T05:34:50.377Z,35.91
2022-09-17T05:35:20.429Z,35.82
2022-09-17T05:35:50.432Z,35.85
2022-09-17T05:36:20.483Z,35.86
2022-09-17T05:36:50.653Z,35.87
2022-09-17T05:37:20.512Z,35.85
2022-09-17T05:37:50.541Z,35.87
2022-09-17T05:38:20.591Z,35.83
2022-09-17T05:38:50.596Z,35.87
2022-09-17T05:39:20.633Z,35.86
2022-09-17T05:39:50.709Z,35.89
2022-09-17T05:40:20.821Z,35.86
2022-09-17T05:40:50.756Z,35.82
2022-09-17T05:41:20.755Z,35.80
2022-09-17T05:41:50.787Z,35.87
2022-09-17T05:42:20.803Z,35.85
2022-09-17T05:42:50.827Z,35.87
2022-09-17T05:43:20.858Z,35.86
2022-09-17T05:43:50.896Z,35.89
2022-09-17T05:44:20.914Z,35.85
2022-09-17T05:44:50.942Z,35.80
2022-09-17T05:45:20.972Z,35.83
2022-09-17T05:45:51.001Z,35.91
2022-09-17T05:46:21.101Z,35.83
2022-09-17T05:46:51.209Z,35.80
2022-09-17T05:47:21.200Z,35.90
2022-09-17T05:47:51.233Z,35.82
2022-09-17T05:48:21.267Z,35.80
2022-09-17T05:48:51.272Z,35.80
2022-09-17T05:49:21.312Z,35.83
2022-09-17T05:49:51.341Z,35.86
2022-09-17T05:50:21.365Z,35.83
2022-09-17T05:50:51.385Z,35.86
2022-09-17T05:51:21.425Z,35.82
2022-09-17T05:51:51.446Z,35.86
2022-09-17T05:52:21.602Z,35.82
2022-09-17T05:52:51.489Z,35.82
2022-09-17T05:53:21.508Z,35.83
2022-09-17T05:53:51.549Z,35.82
2022-09-17T05:54:21.555Z,35.82
2022-09-17T05:54:51.584Z,35.86
2022-09-17T05:55:21.608Z,35.80
2022-09-17T05:55:51.634Z,35.80
2022-09-17T05:56:21.676Z,35.87
2022-09-17T05:56:51.702Z,35.77
2022-09-17T05:57:21.745Z,35.82
2022-09-17T05:57:51.782Z,35.80
2022-09-17T05:58:21.797Z,35.83
2022-09-17T05:58:51.818Z,35.81
2022-09-17T05:59:21.893Z,35.78
2022-09-17T05:59:51.905Z,35.82
2022-09-17T06:00:22.009Z,35.86
2022-09-17T06:00:52.051Z,35.86
2022-09-17T06:01:22.078Z,35.79
2022-09-17T06:01:52.196Z,35.82
2022-09-17T06:02:22.289Z,35.79
2022-09-17T06:02:52.364Z,35.80
2022-09-17T06:03:22.520Z,35.75
2022-09-17T06:03:52.388Z,35.80
2022-09-17T06:04:22.503Z,35.79
2022-09-17T06:04:52.467Z,35.82
2022-09-17T06:05:22.588Z,35.83
2022-09-17T06:05:52.692Z,35.78
2022-09-17T06:06:22.818Z,35.83
2022-09-17T06:06:52.994Z,35.85
2022-09-17T06:07:22.975Z,35.79
2022-09-17T06:07:53.215Z,35.80
2022-09-17T06:08:23.166Z,35.80
2022-09-17T06:08:53.159Z,35.77
2022-09-17T06:09:23.302Z,35.82
2022-09-17T06:09:53.277Z,35.74
2022-09-17T06:10:23.269Z,35.78
2022-09-17T06:10:53.388Z,35.74
2022-09-17T06:11:23.376Z,35.77
2022-09-17T06:11:53.515Z,35.78
2022-09-17T06:12:23.516Z,35.83
2022-09-17T06:12:53.503Z,35.78
2022-09-17T06:13:23.540Z,35.79
2022-09-17T06:13:53.557Z,35.77
2022-09-17T06:14:23.584Z,35.76
2022-09-17T06:14:53.602Z,35.80
2022-09-17T06:15:23.642Z,35.77
2022-09-17T06:15:53.844Z,35.80
2022-09-17T06:16:23.851Z,35.79
2022-09-17T06:16:53.819Z,35.77
2022-09-17T06:17:23.848Z,35.73
2022-09-17T06:17:53.913Z,35.77
2022-09-17T06:18:23.931Z,35.76
2022-09-17T06:18:53.948Z,35.82
2022-09-17T06:19:23.977Z,35.80
2022-09-17T06:19:53.998Z,35.80
2022-09-17T06:20:24.039Z,35.74
2022-09-17T06:20:54.077Z,35.76
2022-09-17T06:21:24.090Z,35.76
2022-09-17T06:21:54.148Z,35.77
2022-09-17T06:22:24.175Z,35.73
2022-09-17T06:22:54.196Z,35.77
2022-09-17T06:23:24.352Z,35.77
2022-09-17T06:23:54.343Z,35.80
2022-09-17T06:24:24.380Z,35.77
2022-09-17T06:24:54.425Z,35.77
2022-09-17T06:25:24.481Z,35.83
2022-09-17T06:25:54.592Z,35.74
2022-09-17T06:26:24.632Z,35.78
2022-09-17T06:26:54.662Z,35.73